sensor_id;sensor_type;location;lat;lon;timestamp;P1;durP1;ratioP1;P2;durP2;ratioP2
68523;SDS011;55524;51.380;13.372;2022-08-03T00:01:46;4.40;;;2.40;;
68523;SDS011;55524;51.380;13.372;2022-08-03T00:04:12;4.95;;;2.50;;
68523;SDS011;55524;51.380;13.372;2022-08-03T00:06:39;2.65;;;2.45;;
68523;SDS011;55524;51.380;13.372;2022-08-03T00:09:06;5.18;;;2.45;;
68523;SDS011;55524;51.380;13.372;2022-08-03T00:11:33;4.80;;;2.33;;
68523;SDS011;55524;51.380;13.372;2022-08-03T00:14:00;2.35;;;2.10;;
68523;SDS011;55524;51.380;13.372;2022-08-03T00:16:26;3.53;;;2.10;;
68523;SDS011;55524;51.380;13.372;2022-08-03T00:18:52;2.80;;;2.10;;
68523;SDS011;55524;51.380;13.372;2022-08-03T00:21:19;2.58;;;2.30;;
68523;SDS011;55524;51.380;13.372;2022-08-03T00:23:45;2.80;;;2.40;;
68523;SDS011;55524;51.380;13.372;2022-08-03T00:26:11;5.43;;;2.17;;
68523;SDS011;55524;51.380;13.372;2022-08-03T00:28:37;3.72;;;2.70;;
68523;SDS011;55524;51.380;13.372;2022-08-03T00:31:04;4.38;;;2.30;;
68523;SDS011;55524;51.380;13.372;2022-08-03T00:33:31;2.65;;;2.45;;
68523;SDS011;55524;51.380;13.372;2022-08-03T00:35:57;2.53;;;2.33;;
68523;SDS011;55524;51.380;13.372;2022-08-03T00:38:23;2.78;;;2.58;;
68523;SDS011;55524;51.380;13.372;2022-08-03T00:40:49;2.65;;;2.45;;
68523;SDS011;55524;51.380;13.372;2022-08-03T00:43:16;4.35;;;2.17;;
68523;SDS011;55524;51.380;13.372;2022-08-03T00:45:42;5.25;;;2.40;;
68523;SDS011;55524;51.380;13.372;2022-08-03T00:48:09;6.43;;;2.45;;
68523;SDS011;55524;51.380;13.372;2022-08-03T00:50:40;2.60;;;2.40;;
68523;SDS011;55524;51.380;13.372;2022-08-03T00:53:08;3.45;;;2.80;;
68523;SDS011;55524;51.380;13.372;2022-08-03T00:55:39;4.15;;;2.75;;
68523;SDS011;55524;51.380;13.372;2022-08-03T00:58:06;4.13;;;2.35;;
68523;SDS011;55524;51.380;13.372;2022-08-03T01:00:35;4.57;;;2.65;;
68523;SDS011;55524;51.380;13.372;2022-08-03T01:03:04;3.20;;;2.55;;
68523;SDS011;55524;51.380;13.372;2022-08-03T01:05:37;4.03;;;2.55;;
68523;SDS011;55524;51.380;13.372;2022-08-03T01:08:37;2.75;;;2.40;;
68523;SDS011;55524;51.380;13.372;2022-08-03T01:11:37;7.63;;;2.83;;
68523;SDS011;55524;51.380;13.372;2022-08-03T01:14:12;3.90;;;2.83;;
68523;SDS011;55524;51.380;13.372;2022-08-03T01:30:31;5.03;;;2.80;;
68523;SDS011;55524;51.380;13.372;2022-08-03T01:35:35;6.97;;;3.50;;
68523;SDS011;55524;51.380;13.372;2022-08-03T01:38:23;5.22;;;3.30;;
68523;SDS011;55524;51.380;13.372;2022-08-03T01:40:59;8.63;;;3.30;;
68523;SDS011;55524;51.380;13.372;2022-08-03T01:43:31;5.25;;;3.28;;
68523;SDS011;55524;51.380;13.372;2022-08-03T01:45:58;5.75;;;3.00;;
68523;SDS011;55524;51.380;13.372;2022-08-03T01:48:26;7.68;;;3.15;;
68523;SDS011;55524;51.380;13.372;2022-08-03T01:50:54;7.05;;;2.78;;
68523;SDS011;55524;51.380;13.372;2022-08-03T01:53:22;4.28;;;2.83;;
68523;SDS011;55524;51.380;13.372;2022-08-03T01:55:51;5.68;;;3.00;;
68523;SDS011;55524;51.380;13.372;2022-08-03T01:58:20;5.68;;;3.40;;
68523;SDS011;55524;51.380;13.372;2022-08-03T02:00:48;4.13;;;3.00;;
68523;SDS011;55524;51.380;13.372;2022-08-03T02:03:15;7.60;;;2.83;;
68523;SDS011;55524;51.380;13.372;2022-08-03T02:05:44;4.68;;;2.78;;
68523;SDS011;55524;51.380;13.372;2022-08-03T02:08:12;7.53;;;3.20;;
68523;SDS011;55524;51.380;13.372;2022-08-03T02:10:41;3.67;;;3.17;;
68523;SDS011;55524;51.380;13.372;2022-08-03T02:13:10;5.85;;;2.88;;
68523;SDS011;55524;51.380;13.372;2022-08-03T02:15:37;5.65;;;3.13;;
68523;SDS011;55524;51.380;13.372;2022-08-03T02:18:06;8.35;;;3.03;;
68523;SDS011;55524;51.380;13.372;2022-08-03T02:20:34;5.20;;;3.40;;
68523;SDS011;55524;51.380;13.372;2022-08-03T02:23:03;7.50;;;3.35;;
68523;SDS011;55524;51.380;13.372;2022-08-03T02:25:46;5.53;;;3.30;;
68523;SDS011;55524;51.380;13.372;2022-08-03T02:28:17;7.30;;;3.15;;
68523;SDS011;55524;51.380;13.372;2022-08-03T02:30:49;3.33;;;3.03;;
68523;SDS011;55524;51.380;13.372;2022-08-03T02:33:24;8.30;;;3.30;;
68523;SDS011;55524;51.380;13.372;2022-08-03T02:35:54;3.90;;;3.10;;
68523;SDS011;55524;51.380;13.372;2022-08-03T02:38:25;4.32;;;3.28;;
68523;SDS011;55524;51.380;13.372;2022-08-03T02:40:56;6.13;;;3.45;;
68523;SDS011;55524;51.380;13.372;2022-08-03T02:43:24;5.57;;;3.67;;
68523;SDS011;55524;51.380;13.372;2022-08-03T02:45:54;7.25;;;3.40;;
68523;SDS011;55524;51.380;13.372;2022-08-03T02:48:22;7.15;;;3.35;;
68523;SDS011;55524;51.380;13.372;2022-08-03T02:50:52;8.77;;;3.17;;
68523;SDS011;55524;51.380;13.372;2022-08-03T02:53:21;5.95;;;3.63;;
68523;SDS011;55524;51.380;13.372;2022-08-03T02:55:49;6.97;;;3.60;;
68523;SDS011;55524;51.380;13.372;2022-08-03T02:58:17;6.15;;;3.40;;
68523;SDS011;55524;51.380;13.372;2022-08-03T03:03:24;6.10;;;3.55;;
68523;SDS011;55524;51.380;13.372;2022-08-03T03:05:50;4.15;;;3.60;;
68523;SDS011;55524;51.380;13.372;2022-08-03T03:08:18;7.80;;;3.78;;
68523;SDS011;55524;51.380;13.372;2022-08-03T03:10:45;5.80;;;4.43;;
68523;SDS011;55524;51.380;13.372;2022-08-03T03:13:18;4.70;;;3.63;;
68523;SDS011;55524;51.380;13.372;2022-08-03T03:15:46;8.00;;;3.78;;
68523;SDS011;55524;51.380;13.372;2022-08-03T03:18:14;5.90;;;3.50;;
68523;SDS011;55524;51.380;13.372;2022-08-03T03:20:41;4.93;;;3.55;;
68523;SDS011;55524;51.380;13.372;2022-08-03T03:23:09;8.98;;;3.90;;
68523;SDS011;55524;51.380;13.372;2022-08-03T03:25:37;4.88;;;3.67;;
68523;SDS011;55524;51.380;13.372;2022-08-03T03:28:04;7.53;;;3.58;;
68523;SDS011;55524;51.380;13.372;2022-08-03T03:30:30;7.32;;;3.78;;
68523;SDS011;55524;51.380;13.372;2022-08-03T03:32:57;9.20;;;3.90;;
68523;SDS011;55524;51.380;13.372;2022-08-03T03:35:24;4.32;;;3.92;;
68523;SDS011;55524;51.380;13.372;2022-08-03T03:37:52;9.85;;;3.88;;
68523;SDS011;55524;51.380;13.372;2022-08-03T03:40:18;11.05;;;3.85;;
68523;SDS011;55524;51.380;13.372;2022-08-03T03:42:45;5.40;;;3.53;;
68523;SDS011;55524;51.380;13.372;2022-08-03T03:45:11;10.40;;;4.10;;
68523;SDS011;55524;51.380;13.372;2022-08-03T03:47:38;9.98;;;4.07;;
68523;SDS011;55524;51.380;13.372;2022-08-03T03:50:05;7.57;;;4.10;;
68523;SDS011;55524;51.380;13.372;2022-08-03T03:52:35;8.20;;;4.18;;
68523;SDS011;55524;51.380;13.372;2022-08-03T03:55:01;10.00;;;3.58;;
68523;SDS011;55524;51.380;13.372;2022-08-03T03:57:28;6.90;;;3.33;;
68523;SDS011;55524;51.380;13.372;2022-08-03T03:59:54;10.38;;;4.00;;
68523;SDS011;55524;51.380;13.372;2022-08-03T04:02:21;13.27;;;3.80;;
68523;SDS011;55524;51.380;13.372;2022-08-03T04:04:47;7.45;;;4.07;;
68523;SDS011;55524;51.380;13.372;2022-08-03T04:10:40;10.52;;;3.88;;
68523;SDS011;55524;51.380;13.372;2022-08-03T04:13:34;7.97;;;4.05;;
68523;SDS011;55524;51.380;13.372;2022-08-03T04:16:23;11.05;;;4.00;;
68523;SDS011;55524;51.380;13.372;2022-08-03T04:18:56;14.40;;;4.18;;
68523;SDS011;55524;51.380;13.372;2022-08-03T04:21:30;8.80;;;3.95;;
68523;SDS011;55524;51.380;13.372;2022-08-03T04:24:00;5.93;;;3.90;;
68523;SDS011;55524;51.380;13.372;2022-08-03T04:26:29;9.18;;;4.20;;
68523;SDS011;55524;51.380;13.372;2022-08-03T04:28:58;14.02;;;4.07;;
68523;SDS011;55524;51.380;13.372;2022-08-03T04:31:26;104.03;;;11.20;;
68523;SDS011;55524;51.380;13.372;2022-08-03T04:33:54;40.85;;;6.65;;
68523;SDS011;55524;51.380;13.372;2022-08-03T04:36:25;74.85;;;10.52;;
68523;SDS011;55524;51.380;13.372;2022-08-03T04:41:32;37.95;;;6.40;;
68523;SDS011;55524;51.380;13.372;2022-08-03T04:44:00;96.97;;;11.10;;
68523;SDS011;55524;51.380;13.372;2022-08-03T04:46:31;17.50;;;5.15;;
68523;SDS011;55524;51.380;13.372;2022-08-03T04:48:59;14.38;;;4.82;;
68523;SDS011;55524;51.380;13.372;2022-08-03T04:51:26;61.33;;;9.38;;
68523;SDS011;55524;51.380;13.372;2022-08-03T04:53:53;16.08;;;5.60;;
68523;SDS011;55524;51.380;13.372;2022-08-03T04:56:20;158.93;;;17.38;;
68523;SDS011;55524;51.380;13.372;2022-08-03T04:58:46;67.95;;;9.75;;
68523;SDS011;55524;51.380;13.372;2022-08-03T05:01:12;27.30;;;6.57;;
68523;SDS011;55524;51.380;13.372;2022-08-03T05:03:40;16.73;;;6.20;;
68523;SDS011;55524;51.380;13.372;2022-08-03T05:06:09;44.78;;;8.40;;
68523;SDS011;55524;51.380;13.372;2022-08-03T05:08:35;17.83;;;6.28;;
68523;SDS011;55524;51.380;13.372;2022-08-03T05:11:02;39.03;;;8.02;;
68523;SDS011;55524;51.380;13.372;2022-08-03T05:13:28;26.95;;;6.50;;
68523;SDS011;55524;51.380;13.372;2022-08-03T05:15:54;24.17;;;7.10;;
68523;SDS011;55524;51.380;13.372;2022-08-03T05:18:21;64.32;;;11.68;;
68523;SDS011;55524;51.380;13.372;2022-08-03T05:20:47;58.22;;;11.02;;
68523;SDS011;55524;51.380;13.372;2022-08-03T05:23:13;23.17;;;7.63;;
68523;SDS011;55524;51.380;13.372;2022-08-03T05:25:39;26.20;;;7.57;;
68523;SDS011;55524;51.380;13.372;2022-08-03T05:28:06;21.27;;;7.30;;
68523;SDS011;55524;51.380;13.372;2022-08-03T05:30:32;36.45;;;8.57;;
68523;SDS011;55524;51.380;13.372;2022-08-03T05:32:59;17.38;;;6.97;;
68523;SDS011;55524;51.380;13.372;2022-08-03T05:35:28;15.98;;;6.80;;
68523;SDS011;55524;51.380;13.372;2022-08-03T05:37:55;142.68;;;16.55;;
68523;SDS011;55524;51.380;13.372;2022-08-03T05:40:21;76.47;;;10.38;;
68523;SDS011;55524;51.380;13.372;2022-08-03T05:42:47;24.02;;;7.70;;
68523;SDS011;55524;51.380;13.372;2022-08-03T05:45:14;12.88;;;6.15;;
68523;SDS011;55524;51.380;13.372;2022-08-03T05:47:45;14.15;;;6.07;;
68523;SDS011;55524;51.380;13.372;2022-08-03T05:50:12;11.13;;;6.45;;
68523;SDS011;55524;51.380;13.372;2022-08-03T05:52:39;14.50;;;6.22;;
68523;SDS011;55524;51.380;13.372;2022-08-03T05:55:07;22.58;;;6.32;;
68523;SDS011;55524;51.380;13.372;2022-08-03T05:57:34;12.02;;;5.32;;
68523;SDS011;55524;51.380;13.372;2022-08-03T06:00:02;7.50;;;4.55;;
68523;SDS011;55524;51.380;13.372;2022-08-03T06:02:31;10.33;;;5.37;;
68523;SDS011;55524;51.380;13.372;2022-08-03T06:04:57;75.53;;;10.50;;
68523;SDS011;55524;51.380;13.372;2022-08-03T06:07:24;49.17;;;8.55;;
68523;SDS011;55524;51.380;13.372;2022-08-03T06:09:51;9.15;;;4.93;;
68523;SDS011;55524;51.380;13.372;2022-08-03T06:12:17;7.13;;;4.25;;
68523;SDS011;55524;51.380;13.372;2022-08-03T06:14:44;15.45;;;4.95;;
68523;SDS011;55524;51.380;13.372;2022-08-03T06:17:10;41.00;;;6.78;;
68523;SDS011;55524;51.380;13.372;2022-08-03T06:19:37;10.10;;;4.57;;
68523;SDS011;55524;51.380;13.372;2022-08-03T06:22:03;16.33;;;5.50;;
68523;SDS011;55524;51.380;13.372;2022-08-03T06:24:29;22.45;;;5.35;;
68523;SDS011;55524;51.380;13.372;2022-08-03T06:26:57;29.08;;;5.15;;
68523;SDS011;55524;51.380;13.372;2022-08-03T06:29:23;20.25;;;4.70;;
68523;SDS011;55524;51.380;13.372;2022-08-03T06:34:53;9.05;;;3.60;;
68523;SDS011;55524;51.380;13.372;2022-08-03T06:37:19;9.57;;;3.40;;
68523;SDS011;55524;51.380;13.372;2022-08-03T06:39:45;7.10;;;3.60;;
68523;SDS011;55524;51.380;13.372;2022-08-03T06:42:11;12.05;;;3.85;;
68523;SDS011;55524;51.380;13.372;2022-08-03T06:44:38;18.17;;;3.38;;
68523;SDS011;55524;51.380;13.372;2022-08-03T06:47:04;6.22;;;3.13;;
68523;SDS011;55524;51.380;13.372;2022-08-03T06:49:30;7.10;;;2.70;;
68523;SDS011;55524;51.380;13.372;2022-08-03T06:51:57;7.05;;;2.50;;
68523;SDS011;55524;51.380;13.372;2022-08-03T06:54:23;3.00;;;2.60;;
68523;SDS011;55524;51.380;13.372;2022-08-03T06:56:49;25.90;;;4.47;;
68523;SDS011;55524;51.380;13.372;2022-08-03T06:59:15;11.20;;;3.58;;
68523;SDS011;55524;51.380;13.372;2022-08-03T07:01:42;7.15;;;2.70;;
68523;SDS011;55524;51.380;13.372;2022-08-03T07:04:08;15.13;;;3.47;;
68523;SDS011;55524;51.380;13.372;2022-08-03T07:06:40;5.30;;;2.60;;
68523;SDS011;55524;51.380;13.372;2022-08-03T07:09:16;6.90;;;2.63;;
68523;SDS011;55524;51.380;13.372;2022-08-03T07:11:45;7.28;;;2.55;;
68523;SDS011;55524;51.380;13.372;2022-08-03T07:14:14;7.00;;;2.80;;
68523;SDS011;55524;51.380;13.372;2022-08-03T07:17:24;5.15;;;2.22;;
68523;SDS011;55524;51.380;13.372;2022-08-03T07:20:14;4.45;;;2.17;;
68523;SDS011;55524;51.380;13.372;2022-08-03T07:22:42;70.05;;;6.88;;
68523;SDS011;55524;51.380;13.372;2022-08-03T07:25:09;2.40;;;1.90;;
68523;SDS011;55524;51.380;13.372;2022-08-03T07:27:42;6.22;;;1.95;;
68523;SDS011;55524;51.380;13.372;2022-08-03T07:30:22;6.47;;;2.33;;
68523;SDS011;55524;51.380;13.372;2022-08-03T07:32:52;5.32;;;2.30;;
68523;SDS011;55524;51.380;13.372;2022-08-03T07:35:18;3.17;;;2.10;;
68523;SDS011;55524;51.380;13.372;2022-08-03T07:38:07;2.10;;;1.90;;
68523;SDS011;55524;51.380;13.372;2022-08-03T07:40:52;8.70;;;2.03;;
68523;SDS011;55524;51.380;13.372;2022-08-03T07:43:18;3.30;;;2.08;;
68523;SDS011;55524;51.380;13.372;2022-08-03T07:45:44;5.50;;;2.00;;
68523;SDS011;55524;51.380;13.372;2022-08-03T07:48:11;8.02;;;2.15;;
68523;SDS011;55524;51.380;13.372;2022-08-03T07:50:37;2.55;;;1.92;;
68523;SDS011;55524;51.380;13.372;2022-08-03T07:53:03;3.58;;;1.80;;
68523;SDS011;55524;51.380;13.372;2022-08-03T07:55:29;5.93;;;2.00;;
68523;SDS011;55524;51.380;13.372;2022-08-03T07:58:06;4.50;;;2.00;;
68523;SDS011;55524;51.380;13.372;2022-08-03T08:00:36;7.40;;;2.13;;
68523;SDS011;55524;51.380;13.372;2022-08-03T08:03:03;4.70;;;2.03;;
68523;SDS011;55524;51.380;13.372;2022-08-03T08:05:30;3.45;;;1.83;;
68523;SDS011;55524;51.380;13.372;2022-08-03T08:07:56;2.38;;;1.80;;
68523;SDS011;55524;51.380;13.372;2022-08-03T08:10:22;2.75;;;1.63;;
68523;SDS011;55524;51.380;13.372;2022-08-03T08:12:49;1.55;;;1.20;;
68523;SDS011;55524;51.380;13.372;2022-08-03T08:15:16;2.88;;;1.75;;
68523;SDS011;55524;51.380;13.372;2022-08-03T08:17:43;5.88;;;1.80;;
68523;SDS011;55524;51.380;13.372;2022-08-03T08:20:19;3.10;;;1.48;;
68523;SDS011;55524;51.380;13.372;2022-08-03T08:22:47;1.92;;;1.63;;
68523;SDS011;55524;51.380;13.372;2022-08-03T08:25:14;2.40;;;1.60;;
68523;SDS011;55524;51.380;13.372;2022-08-03T08:27:41;2.40;;;1.60;;
68523;SDS011;55524;51.380;13.372;2022-08-03T08:30:09;1.50;;;1.40;;
68523;SDS011;55524;51.380;13.372;2022-08-03T08:32:36;3.92;;;1.40;;
68523;SDS011;55524;51.380;13.372;2022-08-03T08:35:03;6.05;;;1.50;;
68523;SDS011;55524;51.380;13.372;2022-08-03T08:37:30;3.63;;;1.40;;
68523;SDS011;55524;51.380;13.372;2022-08-03T08:39:56;2.33;;;1.30;;
68523;SDS011;55524;51.380;13.372;2022-08-03T08:42:23;11.30;;;2.10;;
68523;SDS011;55524;51.380;13.372;2022-08-03T08:44:50;3.08;;;1.77;;
68523;SDS011;55524;51.380;13.372;2022-08-03T08:47:20;3.45;;;1.23;;
68523;SDS011;55524;51.380;13.372;2022-08-03T08:49:51;2.58;;;1.50;;
68523;SDS011;55524;51.380;13.372;2022-08-03T08:52:23;3.83;;;1.38;;
68523;SDS011;55524;51.380;13.372;2022-08-03T08:54:55;4.03;;;1.50;;
68523;SDS011;55524;51.380;13.372;2022-08-03T08:57:35;5.63;;;1.75;;
68523;SDS011;55524;51.380;13.372;2022-08-03T09:00:07;4.35;;;1.80;;
68523;SDS011;55524;51.380;13.372;2022-08-03T09:02:38;3.58;;;1.35;;
68523;SDS011;55524;51.380;13.372;2022-08-03T09:05:15;4.57;;;1.40;;
68523;SDS011;55524;51.380;13.372;2022-08-03T09:07:58;6.75;;;2.28;;
68523;SDS011;55524;51.380;13.372;2022-08-03T09:10:25;5.15;;;1.73;;
68523;SDS011;55524;51.380;13.372;2022-08-03T09:12:51;2.30;;;1.50;;
68523;SDS011;55524;51.380;13.372;2022-08-03T09:15:22;6.07;;;1.40;;
68523;SDS011;55524;51.380;13.372;2022-08-03T09:17:56;2.88;;;1.60;;
68523;SDS011;55524;51.380;13.372;2022-08-03T09:20:28;3.90;;;1.52;;
68523;SDS011;55524;51.380;13.372;2022-08-03T09:25:26;2.92;;;1.55;;
68523;SDS011;55524;51.380;13.372;2022-08-03T09:28:03;4.70;;;1.48;;
68523;SDS011;55524;51.380;13.372;2022-08-03T09:30:33;4.85;;;1.63;;
68523;SDS011;55524;51.380;13.372;2022-08-03T09:33:01;1.48;;;1.30;;
68523;SDS011;55524;51.380;13.372;2022-08-03T09:35:32;5.05;;;1.40;;
68523;SDS011;55524;51.380;13.372;2022-08-03T09:38:11;13.52;;;2.33;;
68523;SDS011;55524;51.380;13.372;2022-08-03T09:40:43;7.82;;;1.50;;
68523;SDS011;55524;51.380;13.372;2022-08-03T09:43:10;6.55;;;1.63;;
68523;SDS011;55524;51.380;13.372;2022-08-03T09:45:38;5.85;;;1.40;;
68523;SDS011;55524;51.380;13.372;2022-08-03T09:48:24;5.20;;;1.42;;
68523;SDS011;55524;51.380;13.372;2022-08-03T09:50:54;6.35;;;1.25;;
68523;SDS011;55524;51.380;13.372;2022-08-03T09:53:23;3.83;;;1.27;;
68523;SDS011;55524;51.380;13.372;2022-08-03T09:55:51;2.17;;;1.40;;
68523;SDS011;55524;51.380;13.372;2022-08-03T09:58:19;6.25;;;1.30;;
68523;SDS011;55524;51.380;13.372;2022-08-03T10:01:14;5.55;;;1.48;;
68523;SDS011;55524;51.380;13.372;2022-08-03T10:03:41;2.88;;;1.60;;
68523;SDS011;55524;51.380;13.372;2022-08-03T10:06:24;4.57;;;1.30;;
68523;SDS011;55524;51.380;13.372;2022-08-03T10:09:08;4.82;;;1.30;;
68523;SDS011;55524;51.380;13.372;2022-08-03T10:11:36;3.72;;;1.40;;
68523;SDS011;55524;51.380;13.372;2022-08-03T10:14:04;4.97;;;1.40;;
68523;SDS011;55524;51.380;13.372;2022-08-03T10:16:34;4.10;;;1.25;;
68523;SDS011;55524;51.380;13.372;2022-08-03T10:19:05;1.30;;;1.02;;
68523;SDS011;55524;51.380;13.372;2022-08-03T10:21:35;4.18;;;1.50;;
68523;SDS011;55524;51.380;13.372;2022-08-03T10:24:06;1.75;;;1.10;;
68523;SDS011;55524;51.380;13.372;2022-08-03T10:26:35;4.32;;;1.20;;
68523;SDS011;55524;51.380;13.372;2022-08-03T10:29:08;3.17;;;0.98;;
68523;SDS011;55524;51.380;13.372;2022-08-03T10:31:47;5.38;;;1.20;;
68523;SDS011;55524;51.380;13.372;2022-08-03T10:34:22;1.15;;;1.15;;
68523;SDS011;55524;51.380;13.372;2022-08-03T10:37:21;1.10;;;1.10;;
68523;SDS011;55524;51.380;13.372;2022-08-03T10:40:12;3.08;;;0.93;;
68523;SDS011;55524;51.380;13.372;2022-08-03T10:43:03;3.22;;;1.00;;
68523;SDS011;55524;51.380;13.372;2022-08-03T10:46:03;5.55;;;1.50;;
68523;SDS011;55524;51.380;13.372;2022-08-03T10:49:03;2.08;;;1.20;;
68523;SDS011;55524;51.380;13.372;2022-08-03T10:51:31;2.45;;;1.15;;
68523;SDS011;55524;51.380;13.372;2022-08-03T11:00:32;1.52;;;1.00;;
68523;SDS011;55524;51.380;13.372;2022-08-03T11:03:12;2.67;;;1.20;;
68523;SDS011;55524;51.380;13.372;2022-08-03T11:05:46;1.90;;;1.20;;
68523;SDS011;55524;51.380;13.372;2022-08-03T11:08:31;2.05;;;1.13;;
68523;SDS011;55524;51.380;13.372;2022-08-03T11:11:02;1.33;;;1.25;;
68523;SDS011;55524;51.380;13.372;2022-08-03T11:16:40;4.65;;;1.20;;
68523;SDS011;55524;51.380;13.372;2022-08-03T11:19:41;3.50;;;1.10;;
68523;SDS011;55524;51.380;13.372;2022-08-03T11:22:22;4.35;;;1.30;;
68523;SDS011;55524;51.380;13.372;2022-08-03T11:27:42;2.55;;;1.40;;
68523;SDS011;55524;51.380;13.372;2022-08-03T11:40:50;5.68;;;1.30;;
68523;SDS011;55524;51.380;13.372;2022-08-03T11:48:47;1.35;;;1.25;;
68523;SDS011;55524;51.380;13.372;2022-08-03T11:51:18;2.78;;;1.30;;
68523;SDS011;55524;51.380;13.372;2022-08-03T11:53:59;3.72;;;1.15;;
68523;SDS011;55524;51.380;13.372;2022-08-03T11:56:46;7.50;;;1.52;;
68523;SDS011;55524;51.380;13.372;2022-08-03T11:59:17;3.50;;;1.20;;
68523;SDS011;55524;51.380;13.372;2022-08-03T12:04:53;8.15;;;1.50;;
68523;SDS011;55524;51.380;13.372;2022-08-03T12:07:32;4.85;;;1.33;;
68523;SDS011;55524;51.380;13.372;2022-08-03T12:15:10;10.52;;;1.95;;
68523;SDS011;55524;51.380;13.372;2022-08-03T12:17:38;3.03;;;1.10;;
68523;SDS011;55524;51.380;13.372;2022-08-03T12:20:14;12.25;;;1.52;;
68523;SDS011;55524;51.380;13.372;2022-08-03T12:22:49;3.33;;;1.53;;
68523;SDS011;55524;51.380;13.372;2022-08-03T12:25:21;3.33;;;1.40;;
68523;SDS011;55524;51.380;13.372;2022-08-03T12:28:17;5.30;;;1.30;;
68523;SDS011;55524;51.380;13.372;2022-08-03T12:30:49;5.85;;;1.30;;
68523;SDS011;55524;51.380;13.372;2022-08-03T12:33:25;5.70;;;1.40;;
68523;SDS011;55524;51.380;13.372;2022-08-03T12:36:12;7.03;;;1.30;;
68523;SDS011;55524;51.380;13.372;2022-08-03T12:38:39;15.52;;;1.90;;
68523;SDS011;55524;51.380;13.372;2022-08-03T12:41:10;2.42;;;1.30;;
68523;SDS011;55524;51.380;13.372;2022-08-03T12:43:56;6.55;;;1.50;;
68523;SDS011;55524;51.380;13.372;2022-08-03T12:46:31;4.05;;;1.33;;
68523;SDS011;55524;51.380;13.372;2022-08-03T12:49:10;6.38;;;1.30;;
68523;SDS011;55524;51.380;13.372;2022-08-03T12:54:15;5.10;;;1.30;;
68523;SDS011;55524;51.380;13.372;2022-08-03T12:59:31;3.50;;;1.33;;
68523;SDS011;55524;51.380;13.372;2022-08-03T13:02:17;5.40;;;1.10;;
68523;SDS011;55524;51.380;13.372;2022-08-03T13:04:46;5.03;;;1.15;;
68523;SDS011;55524;51.380;13.372;2022-08-03T13:07:21;1.42;;;1.00;;
68523;SDS011;55524;51.380;13.372;2022-08-03T13:10:30;3.92;;;1.20;;
68523;SDS011;55524;51.380;13.372;2022-08-03T13:12:59;2.25;;;1.20;;
68523;SDS011;55524;51.380;13.372;2022-08-03T13:15:30;1.48;;;1.00;;
68523;SDS011;55524;51.380;13.372;2022-08-03T13:17:57;6.10;;;1.35;;
68523;SDS011;55524;51.380;13.372;2022-08-03T13:20:23;2.67;;;0.90;;
68523;SDS011;55524;51.380;13.372;2022-08-03T13:22:52;6.00;;;1.10;;
68523;SDS011;55524;51.380;13.372;2022-08-03T13:25:20;3.28;;;1.00;;
68523;SDS011;55524;51.380;13.372;2022-08-03T13:27:58;1.77;;;1.00;;
68523;SDS011;55524;51.380;13.372;2022-08-03T13:30:24;1.13;;;1.00;;
68523;SDS011;55524;51.380;13.372;2022-08-03T13:32:51;5.30;;;1.23;;
68523;SDS011;55524;51.380;13.372;2022-08-03T13:35:17;1.77;;;1.00;;
68523;SDS011;55524;51.380;13.372;2022-08-03T13:37:43;1.90;;;1.00;;
68523;SDS011;55524;51.380;13.372;2022-08-03T13:40:10;1.23;;;0.80;;
68523;SDS011;55524;51.380;13.372;2022-08-03T13:42:56;6.18;;;1.30;;
68523;SDS011;55524;51.380;13.372;2022-08-03T13:45:23;2.60;;;1.05;;
68523;SDS011;55524;51.380;13.372;2022-08-03T13:47:51;1.42;;;1.10;;
68523;SDS011;55524;51.380;13.372;2022-08-03T13:50:31;5.28;;;1.23;;
68523;SDS011;55524;51.380;13.372;2022-08-03T13:52:58;3.20;;;0.88;;
68523;SDS011;55524;51.380;13.372;2022-08-03T13:55:24;4.38;;;1.20;;
68523;SDS011;55524;51.380;13.372;2022-08-03T13:57:53;4.47;;;1.30;;
68523;SDS011;55524;51.380;13.372;2022-08-03T14:00:20;3.20;;;1.10;;
68523;SDS011;55524;51.380;13.372;2022-08-03T14:02:50;6.25;;;1.30;;
68523;SDS011;55524;51.380;13.372;2022-08-03T14:05:39;7.18;;;1.20;;
68523;SDS011;55524;51.380;13.372;2022-08-03T14:08:29;3.92;;;1.02;;
68523;SDS011;55524;51.380;13.372;2022-08-03T14:11:02;2.07;;;1.20;;
68523;SDS011;55524;51.380;13.372;2022-08-03T14:13:34;6.18;;;1.08;;
68523;SDS011;55524;51.380;13.372;2022-08-03T14:16:12;5.53;;;1.10;;
68523;SDS011;55524;51.380;13.372;2022-08-03T14:18:46;3.13;;;1.10;;
68523;SDS011;55524;51.380;13.372;2022-08-03T14:21:12;4.55;;;1.13;;
68523;SDS011;55524;51.380;13.372;2022-08-03T14:24:00;3.33;;;1.02;;
68523;SDS011;55524;51.380;13.372;2022-08-03T14:26:30;4.68;;;1.40;;
68523;SDS011;55524;51.380;13.372;2022-08-03T14:28:56;3.80;;;1.15;;
68523;SDS011;55524;51.380;13.372;2022-08-03T14:31:22;11.18;;;1.30;;
68523;SDS011;55524;51.380;13.372;2022-08-03T14:33:49;3.80;;;1.02;;
68523;SDS011;55524;51.380;13.372;2022-08-03T14:36:15;5.93;;;1.48;;
68523;SDS011;55524;51.380;13.372;2022-08-03T14:38:41;4.63;;;1.10;;
68523;SDS011;55524;51.380;13.372;2022-08-03T14:41:08;1.50;;;1.10;;
68523;SDS011;55524;51.380;13.372;2022-08-03T14:43:34;4.53;;;1.25;;
68523;SDS011;55524;51.380;13.372;2022-08-03T14:46:00;1.70;;;1.38;;
68523;SDS011;55524;51.380;13.372;2022-08-03T14:48:26;1.15;;;1.10;;
68523;SDS011;55524;51.380;13.372;2022-08-03T14:50:58;2.92;;;1.20;;
68523;SDS011;55524;51.380;13.372;2022-08-03T14:53:25;3.17;;;0.90;;
68523;SDS011;55524;51.380;13.372;2022-08-03T14:55:53;2.30;;;1.10;;
68523;SDS011;55524;51.380;13.372;2022-08-03T14:58:24;2.28;;;1.10;;
68523;SDS011;55524;51.380;13.372;2022-08-03T15:00:51;1.40;;;1.10;;
68523;SDS011;55524;51.380;13.372;2022-08-03T15:03:18;4.32;;;1.02;;
68523;SDS011;55524;51.380;13.372;2022-08-03T15:05:52;2.80;;;0.95;;
68523;SDS011;55524;51.380;13.372;2022-08-03T15:08:20;15.85;;;1.40;;
68523;SDS011;55524;51.380;13.372;2022-08-03T15:10:48;3.03;;;0.98;;
68523;SDS011;55524;51.380;13.372;2022-08-03T15:13:18;2.17;;;1.05;;
68523;SDS011;55524;51.380;13.372;2022-08-03T15:15:45;3.88;;;1.20;;
68523;SDS011;55524;51.380;13.372;2022-08-03T15:18:12;3.33;;;0.95;;
68523;SDS011;55524;51.380;13.372;2022-08-03T15:20:39;1.08;;;0.90;;
68523;SDS011;55524;51.380;13.372;2022-08-03T15:23:19;0.83;;;0.83;;
68523;SDS011;55524;51.380;13.372;2022-08-03T15:25:45;1.05;;;0.90;;
68523;SDS011;55524;51.380;13.372;2022-08-03T15:28:12;1.95;;;0.93;;
68523;SDS011;55524;51.380;13.372;2022-08-03T15:30:38;2.70;;;0.98;;
68523;SDS011;55524;51.380;13.372;2022-08-03T15:33:07;5.88;;;1.02;;
68523;SDS011;55524;51.380;13.372;2022-08-03T15:35:34;0.90;;;0.90;;
68523;SDS011;55524;51.380;13.372;2022-08-03T15:38:02;1.80;;;1.00;;
68523;SDS011;55524;51.380;13.372;2022-08-03T15:40:33;1.95;;;0.90;;
68523;SDS011;55524;51.380;13.372;2022-08-03T15:43:00;6.50;;;1.50;;
68523;SDS011;55524;51.380;13.372;2022-08-03T15:45:37;7.13;;;1.20;;
68523;SDS011;55524;51.380;13.372;2022-08-03T15:48:04;4.57;;;1.25;;
68523;SDS011;55524;51.380;13.372;2022-08-03T15:50:40;9.65;;;1.23;;
68523;SDS011;55524;51.380;13.372;2022-08-03T15:53:07;4.45;;;0.90;;
68523;SDS011;55524;51.380;13.372;2022-08-03T15:55:38;2.25;;;1.10;;
68523;SDS011;55524;51.380;13.372;2022-08-03T15:58:08;4.32;;;1.27;;
68523;SDS011;55524;51.380;13.372;2022-08-03T16:00:34;2.60;;;0.93;;
68523;SDS011;55524;51.380;13.372;2022-08-03T16:03:01;3.30;;;1.23;;
68523;SDS011;55524;51.380;13.372;2022-08-03T16:05:27;3.80;;;1.23;;